sensor_id;sensor_type;location;lat;lon;timestamp;pressure;altitude;pressure_sealevel;temperature
80246;BMP280;69558;39.208;-77.226;2023-12-07T00:00:38;100451.50;;;18.31
80246;BMP280;69558;39.208;-77.226;2023-12-07T00:03:04;100454.13;;;18.31
80246;BMP280;69558;39.208;-77.226;2023-12-07T00:05:32;100457.75;;;18.30
80246;BMP280;69558;39.208;-77.226;2023-12-07T00:07:58;100456.94;;;18.29
80246;BMP280;69558;39.208;-77.226;2023-12-07T00:10:25;100451.84;;;18.28
80246;BMP280;69558;39.208;-77.226;2023-12-07T00:12:50;100444.19;;;18.26
80246;BMP280;69558;39.208;-77.226;2023-12-07T00:15:16;100444.50;;;18.23
80246;BMP280;69558;39.208;-77.226;2023-12-07T00:17:42;100460.13;;;18.25
80246;BMP280;69558;39.208;-77.226;2023-12-07T00:20:08;100462.88;;;18.23
80246;BMP280;69558;39.208;-77.226;2023-12-07T00:22:34;100451.56;;;18.23
80246;BMP280;69558;39.208;-77.226;2023-12-07T00:25:00;100452.09;;;18.18
80246;BMP280;69558;39.208;-77.226;2023-12-07T00:27:26;100446.84;;;18.18
80246;BMP280;69558;39.208;-77.226;2023-12-07T00:29:51;100452.91;;;18.19
80246;BMP280;69558;39.208;-77.226;2023-12-07T00:32:17;100449.34;;;18.20
80246;BMP280;69558;39.208;-77.226;2023-12-07T00:34:43;100448.53;;;18.19
80246;BMP280;69558;39.208;-77.226;2023-12-07T00:37:09;100448.94;;;18.23
80246;BMP280;69558;39.208;-77.226;2023-12-07T00:39:35;100437.84;;;18.21
80246;BMP280;69558;39.208;-77.226;2023-12-07T00:42:01;100453.38;;;18.22
80246;BMP280;69558;39.208;-77.226;2023-12-07T00:44:28;100449.75;;;18.23
80246;BMP280;69558;39.208;-77.226;2023-12-07T00:46:55;100452.25;;;18.25
80246;BMP280;69558;39.208;-77.226;2023-12-07T00:49:21;100445.19;;;18.25
80246;BMP280;69558;39.208;-77.226;2023-12-07T00:51:46;100445.78;;;18.27
80246;BMP280;69558;39.208;-77.226;2023-12-07T00:54:13;100451.03;;;18.27
80246;BMP280;69558;39.208;-77.226;2023-12-07T00:56:38;100445.44;;;18.30
80246;BMP280;69558;39.208;-77.226;2023-12-07T00:59:04;100438.72;;;18.28
80246;BMP280;69558;39.208;-77.226;2023-12-07T01:01:30;100438.16;;;18.32
80246;BMP280;69558;39.208;-77.226;2023-12-07T01:03:56;100439.66;;;18.35
80246;BMP280;69558;39.208;-77.226;2023-12-07T01:06:22;100444.69;;;18.36
80246;BMP280;69558;39.208;-77.226;2023-12-07T01:08:48;100447.00;;;18.39
80246;BMP280;69558;39.208;-77.226;2023-12-07T01:11:14;100450.22;;;18.41
80246;BMP280;69558;39.208;-77.226;2023-12-07T01:13:40;100455.31;;;18.43
80246;BMP280;69558;39.208;-77.226;2023-12-07T01:16:05;100453.50;;;18.43
80246;BMP280;69558;39.208;-77.226;2023-12-07T01:18:31;100451.50;;;18.45
80246;BMP280;69558;39.208;-77.226;2023-12-07T01:20:58;100475.75;;;18.47
80246;BMP280;69558;39.208;-77.226;2023-12-07T01:23:24;100479.22;;;18.48
80246;BMP280;69558;39.208;-77.226;2023-12-07T01:25:50;100476.59;;;18.48
80246;BMP280;69558;39.208;-77.226;2023-12-07T01:28:16;100490.56;;;18.49
80246;BMP280;69558;39.208;-77.226;2023-12-07T01:30:42;100490.09;;;18.45
80246;BMP280;69558;39.208;-77.226;2023-12-07T01:33:08;100487.25;;;18.46
80246;BMP280;69558;39.208;-77.226;2023-12-07T01:35:34;100488.47;;;18.44
80246;BMP280;69558;39.208;-77.226;2023-12-07T01:38:00;100490.28;;;18.43
80246;BMP280;69558;39.208;-77.226;2023-12-07T01:40:25;100494.06;;;18.41
80246;BMP280;69558;39.208;-77.226;2023-12-07T01:42:52;100492.63;;;18.38
80246;BMP280;69558;39.208;-77.226;2023-12-07T01:45:19;100486.72;;;18.36
80246;BMP280;69558;39.208;-77.226;2023-12-07T01:47:45;100493.59;;;18.37
80246;BMP280;69558;39.208;-77.226;2023-12-07T01:50:13;100484.28;;;18.35
80246;BMP280;69558;39.208;-77.226;2023-12-07T01:52:47;100483.47;;;18.34
80246;BMP280;69558;39.208;-77.226;2023-12-07T01:55:14;100486.25;;;18.33
80246;BMP280;69558;39.208;-77.226;2023-12-07T01:57:42;100471.50;;;18.32
80246;BMP280;69558;39.208;-77.226;2023-12-07T02:00:08;100475.69;;;18.26
80246;BMP280;69558;39.208;-77.226;2023-12-07T02:02:35;100474.06;;;18.25
80246;BMP280;69558;39.208;-77.226;2023-12-07T02:05:01;100474.88;;;18.26
80246;BMP280;69558;39.208;-77.226;2023-12-07T02:07:27;100477.50;;;18.26
80246;BMP280;69558;39.208;-77.226;2023-12-07T02:09:54;100474.25;;;18.24
80246;BMP280;69558;39.208;-77.226;2023-12-07T02:12:20;100465.50;;;18.23
80246;BMP280;69558;39.208;-77.226;2023-12-07T02:14:47;100467.53;;;18.21
80246;BMP280;69558;39.208;-77.226;2023-12-07T02:20:29;100471.31;;;18.19
80246;BMP280;69558;39.208;-77.226;2023-12-07T02:23:00;100473.13;;;18.18
80246;BMP280;69558;39.208;-77.226;2023-12-07T02:25:48;100478.03;;;18.21
80246;BMP280;69558;39.208;-77.226;2023-12-07T02:28:16;100470.34;;;18.20
80246;BMP280;69558;39.208;-77.226;2023-12-07T02:30:43;100466.50;;;18.22
80246;BMP280;69558;39.208;-77.226;2023-12-07T02:33:10;100471.63;;;18.24
80246;BMP280;69558;39.208;-77.226;2023-12-07T02:35:37;100462.28;;;18.21
80246;BMP280;69558;39.208;-77.226;2023-12-07T02:38:05;100472.25;;;18.26
80246;BMP280;69558;39.208;-77.226;2023-12-07T02:40:31;100484.56;;;18.25
80246;BMP280;69558;39.208;-77.226;2023-12-07T02:42:58;100489.28;;;18.30
80246;BMP280;69558;39.208;-77.226;2023-12-07T02:45:26;100488.47;;;18.29
80246;BMP280;69558;39.208;-77.226;2023-12-07T02:47:54;100492.72;;;18.30
80246;BMP280;69558;39.208;-77.226;2023-12-07T02:50:20;100489.09;;;18.31
80246;BMP280;69558;39.208;-77.226;2023-12-07T02:52:46;100497.44;;;18.35
80246;BMP280;69558;39.208;-77.226;2023-12-07T02:55:12;100492.78;;;18.37
80246;BMP280;69558;39.208;-77.226;2023-12-07T02:57:38;100502.97;;;18.40
80246;BMP280;69558;39.208;-77.226;2023-12-07T03:00:05;100498.53;;;18.40
80246;BMP280;69558;39.208;-77.226;2023-12-07T03:02:36;100498.53;;;18.40
80246;BMP280;69558;39.208;-77.226;2023-12-07T03:05:03;100505.22;;;18.43
80246;BMP280;69558;39.208;-77.226;2023-12-07T03:07:30;100487.81;;;18.42
80246;BMP280;69558;39.208;-77.226;2023-12-07T03:09:56;100506.84;;;18.44
80246;BMP280;69558;39.208;-77.226;2023-12-07T03:12:21;100493.53;;;18.45
80246;BMP280;69558;39.208;-77.226;2023-12-07T03:14:49;100501.22;;;18.47
80246;BMP280;69558;39.208;-77.226;2023-12-07T03:17:15;100501.06;;;18.49
80246;BMP280;69558;39.208;-77.226;2023-12-07T03:19:41;100494.16;;;18.47
80246;BMP280;69558;39.208;-77.226;2023-12-07T03:22:07;100505.31;;;18.50
80246;BMP280;69558;39.208;-77.226;2023-12-07T03:24:37;100508.28;;;18.46
80246;BMP280;69558;39.208;-77.226;2023-12-07T03:27:04;100501.59;;;18.44
80246;BMP280;69558;39.208;-77.226;2023-12-07T03:29:32;100504.84;;;18.46
80246;BMP280;69558;39.208;-77.226;2023-12-07T03:31:58;100508.66;;;18.43
80246;BMP280;69558;39.208;-77.226;2023-12-07T03:34:25;100524.44;;;18.43
80246;BMP280;69558;39.208;-77.226;2023-12-07T03:36:51;100524.78;;;18.40
80246;BMP280;69558;39.208;-77.226;2023-12-07T03:39:18;100515.06;;;18.41
80246;BMP280;69558;39.208;-77.226;2023-12-07T03:41:51;100516.41;;;18.37
80246;BMP280;69558;39.208;-77.226;2023-12-07T03:44:17;100523.69;;;18.35
80246;BMP280;69558;39.208;-77.226;2023-12-07T03:46:43;100528.13;;;18.34
80246;BMP280;69558;39.208;-77.226;2023-12-07T03:49:09;100527.47;;;18.32
80246;BMP280;69558;39.208;-77.226;2023-12-07T03:51:35;100541.63;;;18.31
80246;BMP280;69558;39.208;-77.226;2023-12-07T03:54:02;100540.16;;;18.29
80246;BMP280;69558;39.208;-77.226;2023-12-07T03:56:30;100546.06;;;18.31
80246;BMP280;69558;39.208;-77.226;2023-12-07T03:58:56;100549.81;;;18.28
80246;BMP280;69558;39.208;-77.226;2023-12-07T04:01:25;100551.47;;;18.29
80246;BMP280;69558;39.208;-77.226;2023-12-07T04:03:52;100555.63;;;18.24
80246;BMP280;69558;39.208;-77.226;2023-12-07T04:06:17;100555.00;;;18.22
80246;BMP280;69558;39.208;-77.226;2023-12-07T04:08:44;100561.53;;;18.26
80246;BMP280;69558;39.208;-77.226;2023-12-07T04:11:10;100557.41;;;18.23
80246;BMP280;69558;39.208;-77.226;2023-12-07T04:13:36;100552.38;;;18.22
80246;BMP280;69558;39.208;-77.226;2023-12-07T04:16:02;100545.34;;;18.14
80246;BMP280;69558;39.208;-77.226;2023-12-07T04:18:29;100559.63;;;18.20
80246;BMP280;69558;39.208;-77.226;2023-12-07T04:20:55;100551.06;;;18.18
80246;BMP280;69558;39.208;-77.226;2023-12-07T04:23:21;100549.25;;;18.18
80246;BMP280;69558;39.208;-77.226;2023-12-07T04:25:46;100545.81;;;18.18
80246;BMP280;69558;39.208;-77.226;2023-12-07T04:28:12;100552.69;;;18.19
80246;BMP280;69558;39.208;-77.226;2023-12-07T04:30:38;100537.34;;;18.16
80246;BMP280;69558;39.208;-77.226;2023-12-07T04:33:04;100526.63;;;18.17
80246;BMP280;69558;39.208;-77.226;2023-12-07T04:35:30;100529.44;;;18.16
80246;BMP280;69558;39.208;-77.226;2023-12-07T04:37:56;100519.47;;;18.11
80246;BMP280;69558;39.208;-77.226;2023-12-07T04:40:24;100512.06;;;18.14
80246;BMP280;69558;39.208;-77.226;2023-12-07T04:42:51;100518.13;;;18.15
80246;BMP280;69558;39.208;-77.226;2023-12-07T04:45:17;100508.59;;;18.14
80246;BMP280;69558;39.208;-77.226;2023-12-07T04:47:43;100514.97;;;18.20
80246;BMP280;69558;39.208;-77.226;2023-12-07T04:50:09;100515.13;;;18.18
80246;BMP280;69558;39.208;-77.226;2023-12-07T04:52:35;100519.22;;;18.21
80246;BMP280;69558;39.208;-77.226;2023-12-07T04:55:01;100508.72;;;18.21
80246;BMP280;69558;39.208;-77.226;2023-12-07T04:57:27;100503.66;;;18.19
80246;BMP280;69558;39.208;-77.226;2023-12-07T04:59:53;100505.28;;;18.20
80246;BMP280;69558;39.208;-77.226;2023-12-07T05:02:21;100516.13;;;18.17
80246;BMP280;69558;39.208;-77.226;2023-12-07T05:04:47;100515.88;;;18.12
80246;BMP280;69558;39.208;-77.226;2023-12-07T05:07:13;100518.50;;;18.12
80246;BMP280;69558;39.208;-77.226;2023-12-07T05:09:39;100507.69;;;18.07
80246;BMP280;69558;39.208;-77.226;2023-12-07T05:12:06;100513.56;;;18.09
80246;BMP280;69558;39.208;-77.226;2023-12-07T05:14:32;100526.69;;;18.09
80246;BMP280;69558;39.208;-77.226;2023-12-07T05:17:00;100516.19;;;18.09
80246;BMP280;69558;39.208;-77.226;2023-12-07T05:19:26;100518.81;;;18.09
80246;BMP280;69558;39.208;-77.226;2023-12-07T05:21:52;100517.03;;;18.09
80246;BMP280;69558;39.208;-77.226;2023-12-07T05:24:18;100510.94;;;18.09
80246;BMP280;69558;39.208;-77.226;2023-12-07T05:26:45;100508.16;;;18.10
80246;BMP280;69558;39.208;-77.226;2023-12-07T05:29:17;100502.47;;;18.07
80246;BMP280;69558;39.208;-77.226;2023-12-07T05:31:43;100506.53;;;18.09
80246;BMP280;69558;39.208;-77.226;2023-12-07T05:34:09;100502.25;;;18.08
80246;BMP280;69558;39.208;-77.226;2023-12-07T05:36:35;100498.81;;;18.08
80246;BMP280;69558;39.208;-77.226;2023-12-07T05:39:01;100503.44;;;18.06
80246;BMP280;69558;39.208;-77.226;2023-12-07T05:41:27;100502.63;;;18.05
80246;BMP280;69558;39.208;-77.226;2023-12-07T05:43:53;100497.38;;;18.05
80246;BMP280;69558;39.208;-77.226;2023-12-07T05:46:20;100502.78;;;18.04
80246;BMP280;69558;39.208;-77.226;2023-12-07T05:48:46;100486.59;;;18.00
80246;BMP280;69558;39.208;-77.226;2023-12-07T05:51:16;100489.91;;;17.94
80246;BMP280;69558;39.208;-77.226;2023-12-07T05:53:43;100490.56;;;17.96
80246;BMP280;69558;39.208;-77.226;2023-12-07T05:56:09;100493.19;;;17.96
80246;BMP280;69558;39.208;-77.226;2023-12-07T05:58:35;100492.53;;;17.94
80246;BMP280;69558;39.208;-77.226;2023-12-07T06:01:02;100486.47;;;17.94
80246;BMP280;69558;39.208;-77.226;2023-12-07T06:03:28;100497.34;;;17.91
80246;BMP280;69558;39.208;-77.226;2023-12-07T06:05:55;100483.75;;;17.87
80246;BMP280;69558;39.208;-77.226;2023-12-07T06:08:21;100484.75;;;17.86
80246;BMP280;69558;39.208;-77.226;2023-12-07T06:10:48;100484.28;;;17.83
80246;BMP280;69558;39.208;-77.226;2023-12-07T06:13:14;100479.22;;;17.81
80246;BMP280;69558;39.208;-77.226;2023-12-07T06:15:41;100483.66;;;17.80
80246;BMP280;69558;39.208;-77.226;2023-12-07T06:18:06;100488.22;;;17.78
80246;BMP280;69558;39.208;-77.226;2023-12-07T06:20:33;100493.84;;;17.75
80246;BMP280;69558;39.208;-77.226;2023-12-07T06:23:00;100488.97;;;17.72
80246;BMP280;69558;39.208;-77.226;2023-12-07T06:25:28;100502.69;;;17.74
80246;BMP280;69558;39.208;-77.226;2023-12-07T06:27:55;100507.34;;;17.72
80246;BMP280;69558;39.208;-77.226;2023-12-07T06:30:21;100507.50;;;17.71
80246;BMP280;69558;39.208;-77.226;2023-12-07T06:32:47;100508.47;;;17.70
80246;BMP280;69558;39.208;-77.226;2023-12-07T06:35:13;100497.38;;;17.68
80246;BMP280;69558;39.208;-77.226;2023-12-07T06:37:39;100503.44;;;17.68
80246;BMP280;69558;39.208;-77.226;2023-12-07T06:40:09;100497.53;;;17.66
80246;BMP280;69558;39.208;-77.226;2023-12-07T06:42:35;100494.25;;;17.64
80246;BMP280;69558;39.208;-77.226;2023-12-07T06:45:01;100505.75;;;17.63
80246;BMP280;69558;39.208;-77.226;2023-12-07T06:47:28;100502.13;;;17.64
80246;BMP280;69558;39.208;-77.226;2023-12-07T06:49:55;100504.41;;;17.67
80246;BMP280;69558;39.208;-77.226;2023-12-07T06:52:21;100500.97;;;17.67
80246;BMP280;69558;39.208;-77.226;2023-12-07T06:54:47;100513.91;;;17.68
80246;BMP280;69558;39.208;-77.226;2023-12-07T06:57:13;100516.34;;;17.70
80246;BMP280;69558;39.208;-77.226;2023-12-07T06:59:39;100507.84;;;17.68
80246;BMP280;69558;39.208;-77.226;2023-12-07T07:02:06;100503.94;;;17.64
80246;BMP280;69558;39.208;-77.226;2023-12-07T07:04:32;100514.72;;;17.69
80246;BMP280;69558;39.208;-77.226;2023-12-07T07:06:58;100504.25;;;17.69
80246;BMP280;69558;39.208;-77.226;2023-12-07T07:09:25;100498.78;;;17.70
80246;BMP280;69558;39.208;-77.226;2023-12-07T07:11:51;100510.94;;;17.71
80246;BMP280;69558;39.208;-77.226;2023-12-07T07:14:17;100511.75;;;17.72
80246;BMP280;69558;39.208;-77.226;2023-12-07T07:16:43;100516.19;;;17.71
80246;BMP280;69558;39.208;-77.226;2023-12-07T07:19:10;100502.59;;;17.68
80246;BMP280;69558;39.208;-77.226;2023-12-07T07:21:36;100510.78;;;17.73
80246;BMP280;69558;39.208;-77.226;2023-12-07T07:24:01;100517.00;;;17.72
80246;BMP280;69558;39.208;-77.226;2023-12-07T07:26:27;100513.19;;;17.74
80246;BMP280;69558;39.208;-77.226;2023-12-07T07:28:53;100509.75;;;17.74
80246;BMP280;69558;39.208;-77.226;2023-12-07T07:31:20;100497.81;;;17.71
80246;BMP280;69558;39.208;-77.226;2023-12-07T07:33:46;100505.53;;;17.73
80246;BMP280;69558;39.208;-77.226;2023-12-07T07:36:14;100493.41;;;17.72
80246;BMP280;69558;39.208;-77.226;2023-12-07T07:38:41;100500.28;;;17.73
80246;BMP280;69558;39.208;-77.226;2023-12-07T07:41:07;100505.53;;;17.73
80246;BMP280;69558;39.208;-77.226;2023-12-07T07:43:33;100503.72;;;17.73
80246;BMP280;69558;39.208;-77.226;2023-12-07T07:46:03;100503.72;;;17.73
80246;BMP280;69558;39.208;-77.226;2023-12-07T07:48:30;100515.19;;;17.72
80246;BMP280;69558;39.208;-77.226;2023-12-07T07:50:56;100513.56;;;17.71
80246;BMP280;69558;39.208;-77.226;2023-12-07T07:53:23;100509.94;;;17.72
80246;BMP280;69558;39.208;-77.226;2023-12-07T07:55:51;100516.63;;;17.75
80246;BMP280;69558;39.208;-77.226;2023-12-07T07:58:17;100516.19;;;17.71
80246;BMP280;69558;39.208;-77.226;2023-12-07T08:00:43;100517.63;;;17.74
80246;BMP280;69558;39.208;-77.226;2023-12-07T08:03:12;100521.72;;;17.76
80246;BMP280;69558;39.208;-77.226;2023-12-07T08:05:38;100512.56;;;17.72
80246;BMP280;69558;39.208;-77.226;2023-12-07T08:08:04;100519.91;;;17.77
80246;BMP280;69558;39.208;-77.226;2023-12-07T08:10:30;100520.91;;;17.76
80246;BMP280;69558;39.208;-77.226;2023-12-07T08:12:56;100522.69;;;17.75
80246;BMP280;69558;39.208;-77.226;2023-12-07T08:15:21;100513.41;;;17.73
80246;BMP280;69558;39.208;-77.226;2023-12-07T08:17:47;100512.75;;;17.71
80246;BMP280;69558;39.208;-77.226;2023-12-07T08:20:13;100510.28;;;17.69
80246;BMP280;69558;39.208;-77.226;2023-12-07T08:22:40;100519.16;;;17.68
80246;BMP280;69558;39.208;-77.226;2023-12-07T08:25:10;100510.47;;;17.68
80246;BMP280;69558;39.208;-77.226;2023-12-07T08:27:39;100520.16;;;17.67
80246;BMP280;69558;39.208;-77.226;2023-12-07T08:30:06;100517.69;;;17.66
80246;BMP280;69558;39.208;-77.226;2023-12-07T08:32:35;100503.13;;;17.63
80246;BMP280;69558;39.208;-77.226;2023-12-07T08:35:02;100506.06;;;17.60
80246;BMP280;69558;39.208;-77.226;2023-12-07T08:37:28;100513.50;;;17.57
80246;BMP280;69558;39.208;-77.226;2023-12-07T08:39:55;100514.16;;;17.59
80246;BMP280;69558;39.208;-77.226;2023-12-07T08:42:20;100513.34;;;17.58
80246;BMP280;69558;39.208;-77.226;2023-12-07T08:44:47;100517.91;;;17.56
80246;BMP280;69558;39.208;-77.226;2023-12-07T08:47:13;100510.13;;;17.48
80246;BMP280;69558;39.208;-77.226;2023-12-07T08:49:39;100508.78;;;17.52
80246;BMP280;69558;39.208;-77.226;2023-12-07T08:52:04;100505.50;;;17.50
80246;BMP280;69558;39.208;-77.226;2023-12-07T08:54:32;100501.06;;;17.50
80246;BMP280;69558;39.208;-77.226;2023-12-07T08:56:57;100494.19;;;17.49
80246;BMP280;69558;39.208;-77.226;2023-12-07T08:59:25;100487.34;;;17.48
80246;BMP280;69558;39.208;-77.226;2023-12-07T09:01:50;100498.63;;;17.49
80246;BMP280;69558;39.208;-77.226;2023-12-07T09:04:16;100510.28;;;17.46
80246;BMP280;69558;39.208;-77.226;2023-12-07T09:06:42;100513.06;;;17.45
80246;BMP280;69558;39.208;-77.226;2023-12-07T09:09:09;100515.50;;;17.46
80246;BMP280;69558;39.208;-77.226;2023-12-07T09:11:35;100508.03;;;17.43
80246;BMP280;69558;39.208;-77.226;2023-12-07T09:14:00;100523.25;;;17.48
80246;BMP280;69558;39.208;-77.226;2023-12-07T09:16:26;100509.44;;;17.46
80246;BMP280;69558;39.208;-77.226;2023-12-07T09:18:52;100512.88;;;17.46
80246;BMP280;69558;39.208;-77.226;2023-12-07T09:21:18;100510.13;;;17.48
80246;BMP280;69558;39.208;-77.226;2023-12-07T09:23:44;100515.38;;;17.48
80246;BMP280;69558;39.208;-77.226;2023-12-07T09:26:10;100513.72;;;17.47
80246;BMP280;69558;39.208;-77.226;2023-12-07T09:28:36;100514.34;;;17.49
80246;BMP280;69558;39.208;-77.226;2023-12-07T09:31:02;100527.66;;;17.47
80246;BMP280;69558;39.208;-77.226;2023-12-07T09:33:28;100522.22;;;17.49
80246;BMP280;69558;39.208;-77.226;2023-12-07T09:35:55;100538.47;;;17.53
80246;BMP280;69558;39.208;-77.226;2023-12-07T09:38:21;100527.97;;;17.53
80246;BMP280;69558;39.208;-77.226;2023-12-07T09:40:51;100531.72;;;17.50
80246;BMP280;69558;39.208;-77.226;2023-12-07T09:43:17;100531.41;;;17.53
80246;BMP280;69558;39.208;-77.226;2023-12-07T09:45:44;100518.75;;;17.57
80246;BMP280;69558;39.208;-77.226;2023-12-07T09:48:10;100521.53;;;17.55
80246;BMP280;69558;39.208;-77.226;2023-12-07T09:50:36;100529.38;;;17.55
80246;BMP280;69558;39.208;-77.226;2023-12-07T09:53:03;100533.66;;;17.56
80246;BMP280;69558;39.208;-77.226;2023-12-07T09:55:28;100525.44;;;17.59
80246;BMP280;69558;39.208;-77.226;2023-12-07T09:57:56;100528.06;;;17.59
80246;BMP280;69558;39.208;-77.226;2023-12-07T10:00:25;100532.50;;;17.59
80246;BMP280;69558;39.208;-77.226;2023-12-07T10:02:51;100522.34;;;17.56
80246;BMP280;69558;39.208;-77.226;2023-12-07T10:05:17;100528.41;;;17.56
80246;BMP280;69558;39.208;-77.226;2023-12-07T10:07:44;100523.00;;;17.58
80246;BMP280;69558;39.208;-77.226;2023-12-07T10:10:13;100516.94;;;17.57
80246;BMP280;69558;39.208;-77.226;2023-12-07T10:13:00;100515.75;;;17.60
80246;BMP280;69558;39.208;-77.226;2023-12-07T10:15:26;100512.31;;;17.59
80246;BMP280;69558;39.208;-77.226;2023-12-07T10:17:58;100523.31;;;17.55
80246;BMP280;69558;39.208;-77.226;2023-12-07T10:20:26;100537.75;;;17.59
80246;BMP280;69558;39.208;-77.226;2023-12-07T10:23:05;100528.72;;;17.61
80246;BMP280;69558;39.208;-77.226;2023-12-07T10:25:32;100523.00;;;17.58
80246;BMP280;69558;39.208;-77.226;2023-12-07T10:27:59;100543.78;;;17.59
80246;BMP280;69558;39.208;-77.226;2023-12-07T10:30:27;100543.00;;;17.59
80246;BMP280;69558;39.208;-77.226;2023-12-07T10:32:52;100537.56;;;17.60
80246;BMP280;69558;39.208;-77.226;2023-12-07T10:35:19;100542.81;;;17.60
80246;BMP280;69558;39.208;-77.226;2023-12-07T10:37:48;100533.13;;;17.61
80246;BMP280;69558;39.208;-77.226;2023-12-07T10:40:14;100512.03;;;17.54
80246;BMP280;69558;39.208;-77.226;2023-12-07T10:42:41;100524.97;;;17.56
80246;BMP280;69558;39.208;-77.226;2023-12-07T10:45:08;100540.88;;;17.54
80246;BMP280;69558;39.208;-77.226;2023-12-07T10:47:37;100534.84;;;17.54
80246;BMP280;69558;39.208;-77.226;2023-12-07T10:50:06;100521.09;;;17.52
80246;BMP280;69558;39.208;-77.226;2023-12-07T10:52:52;100539.59;;;17.50
80246;BMP280;69558;39.208;-77.226;2023-12-07T10:55:28;100530.28;;;17.47
80246;BMP280;69558;39.208;-77.226;2023-12-07T10:57:55;100516.88;;;17.42
80246;BMP280;69558;39.208;-77.226;2023-12-07T11:00:22;100521.94;;;17.44
80246;BMP280;69558;39.208;-77.226;2023-12-07T11:02:54;100531.78;;;17.42
80246;BMP280;69558;39.208;-77.226;2023-12-07T11:05:20;100505.25;;;17.37
80246;BMP280;69558;39.208;-77.226;2023-12-07T11:10:48;100536.72;;;17.37
80246;BMP280;69558;39.208;-77.226;2023-12-07T11:13:35;100533.44;;;17.35
80246;BMP280;69558;39.208;-77.226;2023-12-07T11:16:03;100526.78;;;17.32
80246;BMP280;69558;39.208;-77.226;2023-12-07T11:18:30;100534.47;;;17.34
80246;BMP280;69558;39.208;-77.226;2023-12-07T11:20:56;100539.50;;;17.35
80246;BMP280;69558;39.208;-77.226;2023-12-07T11:23:22;100540.31;;;17.36
80246;BMP280;69558;39.208;-77.226;2023-12-07T11:25:51;100542.94;;;17.36
80246;BMP280;69558;39.208;-77.226;2023-12-07T11:28:17;100548.88;;;17.38
80246;BMP280;69558;39.208;-77.226;2023-12-07T11:30:47;100542.81;;;17.37
80246;BMP280;69558;39.208;-77.226;2023-12-07T11:33:15;100558.38;;;17.39
80246;BMP280;69558;39.208;-77.226;2023-12-07T11:36:03;100552.91;;;17.40
80246;BMP280;69558;39.208;-77.226;2023-12-07T11:38:29;100557.34;;;17.40
80246;BMP280;69558;39.208;-77.226;2023-12-07T11:40:56;100552.78;;;17.42
80246;BMP280;69558;39.208;-77.226;2023-12-07T11:46:09;100553.41;;;17.44
80246;BMP280;69558;39.208;-77.226;2023-12-07T11:48:35;100553.41;;;17.44
80246;BMP280;69558;39.208;-77.226;2023-12-07T11:51:06;100558.47;;;17.45
80246;BMP280;69558;39.208;-77.226;2023-12-07T11:53:36;100547.97;;;17.45
80246;BMP280;69558;39.208;-77.226;2023-12-07T11:56:05;100546.97;;;17.46
80246;BMP280;69558;39.208;-77.226;2023-12-07T11:58:32;100526.19;;;17.45
80246;BMP280;69558;39.208;-77.226;2023-12-07T12:01:00;100511.78;;;17.41
80246;BMP280;69558;39.208;-77.226;2023-12-07T12:03:27;100523.38;;;17.46
80246;BMP280;69558;39.208;-77.226;2023-12-07T12:05:55;100531.09;;;17.48
80246;BMP280;69558;39.208;-77.226;2023-12-07T12:08:21;100539.78;;;17.48
80246;BMP280;69558;39.208;-77.226;2023-12-07T12:10:49;100515.72;;;17.37
80246;BMP280;69558;39.208;-77.226;2023-12-07T12:13:17;100530.91;;;17.49
80246;BMP280;69558;39.208;-77.226;2023-12-07T12:15:45;100517.19;;;17.47
80246;BMP280;69558;39.208;-77.226;2023-12-07T12:18:14;100519.59;;;17.49
80246;BMP280;69558;39.208;-77.226;2023-12-07T12:20:41;100540.78;;;17.47
80246;BMP280;69558;39.208;-77.226;2023-12-07T12:23:10;100544.34;;;17.46
80246;BMP280;69558;39.208;-77.226;2023-12-07T12:25:36;100563.19;;;17.50
80246;BMP280;69558;39.208;-77.226;2023-12-07T12:28:03;100553.06;;;17.47
80246;BMP280;69558;39.208;-77.226;2023-12-07T12:30:30;100558.31;;;17.47
80246;BMP280;69558;39.208;-77.226;2023-12-07T12:32:56;100563.72;;;17.45
80246;BMP280;69558;39.208;-77.226;2023-12-07T12:35:23;100550.59;;;17.45
80246;BMP280;69558;39.208;-77.226;2023-12-07T12:37:50;100553.41;;;17.44
80246;BMP280;69558;39.208;-77.226;2023-12-07T12:40:20;100536.38;;;17.40
80246;BMP280;69558;39.208;-77.226;2023-12-07T12:42:48;100534.75;;;17.39
80246;BMP280;69558;39.208;-77.226;2023-12-07T12:45:15;100519.25;;;17.29
80246;BMP280;69558;39.208;-77.226;2023-12-07T12:47:42;100542.94;;;17.36
80246;BMP280;69558;39.208;-77.226;2023-12-07T12:50:12;100541.31;;;17.35
80246;BMP280;69558;39.208;-77.226;2023-12-07T12:52:41;100539.03;;;17.32
80246;BMP280;69558;39.208;-77.226;2023-12-07T12:55:10;100537.41;;;17.31
80246;BMP280;69558;39.208;-77.226;2023-12-07T12:57:37;100525.78;;;17.25
80246;BMP280;69558;39.208;-77.226;2023-12-07T13:00:04;100519.72;;;17.25
80246;BMP280;69558;39.208;-77.226;2023-12-07T13:02:33;100527.44;;;17.26
80246;BMP280;69558;39.208;-77.226;2023-12-07T13:04:59;100535.28;;;17.26
80246;BMP280;69558;39.208;-77.226;2023-12-07T13:07:25;100520.38;;;17.27
80246;BMP280;69558;39.208;-77.226;2023-12-07T13:09:51;100510.78;;;17.19
80246;BMP280;69558;39.208;-77.226;2023-12-07T13:12:17;100517.13;;;17.25
80246;BMP280;69558;39.208;-77.226;2023-12-07T13:14:43;100513.34;;;17.27
80246;BMP280;69558;39.208;-77.226;2023-12-07T13:17:09;100518.56;;;17.27
80246;BMP280;69558;39.208;-77.226;2023-12-07T13:19:35;100504.34;;;17.22
80246;BMP280;69558;39.208;-77.226;2023-12-07T13:22:02;100518.44;;;17.29
80246;BMP280;69558;39.208;-77.226;2023-12-07T13:24:31;100507.94;;;17.29
80246;BMP280;69558;39.208;-77.226;2023-12-07T13:26:57;100512.97;;;17.30
80246;BMP280;69558;39.208;-77.226;2023-12-07T13:29:25;100509.38;;;17.31
80246;BMP280;69558;39.208;-77.226;2023-12-07T13:31:52;100508.56;;;17.31
80246;BMP280;69558;39.208;-77.226;2023-12-07T13:34:18;100514.28;;;17.34
80246;BMP280;69558;39.208;-77.226;2023-12-07T13:36:44;100520.16;;;17.36
80246;BMP280;69558;39.208;-77.226;2023-12-07T13:39:09;100517.53;;;17.36